createdAt,value
2018-09-15T00:01:25.220Z,99.90
2018-09-15T00:03:53.461Z,99.90
2018-09-15T00:06:21.563Z,99.90
2018-09-15T00:08:49.804Z,99.90
2018-09-15T00:11:18.085Z,99.90
2018-09-15T00:13:46.394Z,99.90
2018-09-15T00:16:14.899Z,99.90
2018-09-15T00:18:43.237Z,99.90
2018-09-15T00:21:11.697Z,99.90
2018-09-15T00:23:40.118Z,99.90
2018-09-15T00:26:08.709Z,99.90
2018-09-15T00:28:37.075Z,99.90
2018-09-15T00:31:05.524Z,99.90
2018-09-15T00:33:37.260Z,99.90
2018-09-15T00:36:05.660Z,99.90
2018-09-15T00:38:33.870Z,99.90
2018-09-15T00:41:02.256Z,99.90
2018-09-15T00:43:30.683Z,99.90
2018-09-15T00:45:59.047Z,99.90
2018-09-15T00:48:27.470Z,99.90
2018-09-15T00:50:55.856Z,99.90
2018-09-15T00:53:24.253Z,99.90
2018-09-15T00:55:52.655Z,99.90
2018-09-15T00:58:20.867Z,99.90
2018-09-15T01:00:49.147Z,99.90
2018-09-15T01:03:21.001Z,99.90
2018-09-15T01:05:49.563Z,99.90
2018-09-15T01:08:17.914Z,99.90
2018-09-15T01:10:46.889Z,99.90
2018-09-15T01:13:15.119Z,99.90
2018-09-15T01:15:43.528Z,99.90
2018-09-15T01:18:11.940Z,99.90
2018-09-15T01:20:40.327Z,99.90
2018-09-15T01:23:08.588Z,99.90
2018-09-15T01:25:36.915Z,99.90
2018-09-15T01:28:05.227Z,99.90
2018-09-15T01:30:33.943Z,99.90
2018-09-15T01:33:02.461Z,99.90
2018-09-15T01:35:30.961Z,99.90
2018-09-15T01:37:59.221Z,99.90
2018-09-15T01:40:31.934Z,99.90
2018-09-15T01:43:00.437Z,99.90
2018-09-15T01:45:29.518Z,99.90
2018-09-15T01:47:57.849Z,99.90
2018-09-15T01:50:26.240Z,99.90
2018-09-15T01:52:54.748Z,99.90
2018-09-15T01:55:23.259Z,99.90
2018-09-15T01:57:51.537Z,99.90
2018-09-15T02:00:22.093Z,99.90
2018-09-15T02:02:50.367Z,99.90
2018-09-15T02:05:18.872Z,99.90
2018-09-15T02:07:47.176Z,99.90
2018-09-15T02:10:15.402Z,99.90
2018-09-15T02:12:43.572Z,99.90
2018-09-15T02:15:11.966Z,99.90
2018-09-15T02:17:40.581Z,99.90
2018-09-15T02:20:08.994Z,99.90
2018-09-15T02:22:37.323Z,99.90
2018-09-15T02:25:05.670Z,99.90
2018-09-15T02:27:37.522Z,99.90
2018-09-15T02:30:06.172Z,99.90
2018-09-15T02:32:34.550Z,99.90
2018-09-15T02:35:03.184Z,99.90
2018-09-15T02:37:31.530Z,99.90
2018-09-15T02:40:00.673Z,99.90
2018-09-15T02:42:28.986Z,99.90
2018-09-15T02:45:01.074Z,99.90
2018-09-15T02:47:29.562Z,99.90
2018-09-15T02:49:57.993Z,99.90
2018-09-15T02:52:26.576Z,99.90
2018-09-15T02:54:55.130Z,99.90
2018-09-15T02:57:23.350Z,99.90
2018-09-15T02:59:51.763Z,99.90
2018-09-15T03:02:20.167Z,99.90
2018-09-15T03:04:48.676Z,99.90
2018-09-15T03:07:16.846Z,99.90
2018-09-15T03:09:44.927Z,99.90
2018-09-15T03:12:12.929Z,99.90
2018-09-15T03:14:41.464Z,99.90
2018-09-15T03:17:09.945Z,99.90
2018-09-15T03:19:38.414Z,99.90
2018-09-15T03:22:06.744Z,99.90
2018-09-15T03:24:42.622Z,99.90
2018-09-15T03:27:10.894Z,99.90
2018-09-15T03:29:39.288Z,99.90
2018-09-15T03:32:07.799Z,99.90
2018-09-15T03:34:35.998Z,99.90
2018-09-15T03:37:04.211Z,99.90
2018-09-15T03:39:32.412Z,99.90
2018-09-15T03:42:00.950Z,99.90
2018-09-15T03:44:30.942Z,99.90
2018-09-15T03:46:59.452Z,99.90
2018-09-15T03:49:27.714Z,99.90
2018-09-15T03:52:08.189Z,99.90
2018-09-15T03:54:36.715Z,99.90
2018-09-15T03:57:05.153Z,99.90
2018-09-15T03:59:33.633Z,99.90
2018-09-15T04:02:02.026Z,99.90
2018-09-15T04:04:30.518Z,99.90
2018-09-15T04:06:59.017Z,99.90
2018-09-15T04:09:27.405Z,99.90
2018-09-15T04:11:59.618Z,99.90
2018-09-15T04:14:27.994Z,99.90
2018-09-15T04:16:56.418Z,99.90
2018-09-15T04:19:24.884Z,99.90
2018-09-15T04:21:53.271Z,99.90
2018-09-15T04:24:21.581Z,99.90
2018-09-15T04:26:49.993Z,99.90
2018-09-15T04:29:18.348Z,99.90
2018-09-15T04:31:46.679Z,99.90
2018-09-15T04:34:15.006Z,99.90
2018-09-15T04:36:45.565Z,99.90
2018-09-15T04:39:13.938Z,99.90
2018-09-15T04:41:42.399Z,99.90
2018-09-15T04:44:10.966Z,99.90
2018-09-15T04:46:39.309Z,99.90
2018-09-15T04:49:09.629Z,99.90
2018-09-15T04:51:37.764Z,99.90
2018-09-15T04:54:06.356Z,99.90
2018-09-15T04:56:34.657Z,99.90
2018-09-15T04:59:03.663Z,99.90
2018-09-15T05:01:32.096Z,99.90
2018-09-15T05:04:00.576Z,99.90
2018-09-15T05:06:28.895Z,99.90
2018-09-15T05:08:57.190Z,99.90
2018-09-15T05:11:25.494Z,99.90
2018-09-15T05:13:54.158Z,99.90
2018-09-15T05:16:22.707Z,99.90
2018-09-15T05:18:52.357Z,99.90
2018-09-15T05:21:23.538Z,99.90
2018-09-15T05:23:51.852Z,99.90
2018-09-15T05:26:20.286Z,99.90
2018-09-15T05:28:49.084Z,99.90
2018-09-15T05:31:17.492Z,99.90
2018-09-15T05:33:45.863Z,99.90
2018-09-15T05:36:14.064Z,99.90
2018-09-15T05:38:42.385Z,99.90
2018-09-15T05:41:10.860Z,99.90
2018-09-15T05:43:39.353Z,99.90
2018-09-15T05:46:07.765Z,99.90
2018-09-15T05:48:36.176Z,99.90
2018-09-15T05:51:04.803Z,99.90
2018-09-15T05:53:36.957Z,99.90
2018-09-15T05:56:05.500Z,99.90
2018-09-15T05:58:33.881Z,99.90
2018-09-15T06:01:02.488Z,99.90
2018-09-15T06:03:31.073Z,99.90
2018-09-15T06:05:59.488Z,99.90
2018-09-15T06:08:28.813Z,99.90
2018-09-15T06:10:58.150Z,99.90
2018-09-15T06:13:26.628Z,99.90
2018-09-15T06:15:55.031Z,99.90
2018-09-15T06:18:23.333Z,99.90
2018-09-15T06:20:51.621Z,99.90
2018-09-15T06:23:19.919Z,99.90
2018-09-15T06:25:48.435Z,99.90
2018-09-15T06:28:16.953Z,99.90
2018-09-15T06:30:45.879Z,99.90
2018-09-15T06:33:14.255Z,99.90
2018-09-15T06:35:42.684Z,98.90
2018-09-15T06:38:11.135Z,98.40
2018-09-15T06:40:39.552Z,98.70
2018-09-15T06:43:08.008Z,99.20
2018-09-15T06:45:36.502Z,99.90
2018-09-15T06:48:04.938Z,99.90
2018-09-15T06:50:33.303Z,99.90
2018-09-15T06:53:01.845Z,99.90
2018-09-15T06:55:30.033Z,99.90
2018-09-15T06:57:58.234Z,99.90
2018-09-15T07:00:26.405Z,99.90
2018-09-15T07:02:54.829Z,99.90
2018-09-15T07:05:23.298Z,99.90
2018-09-15T07:07:51.827Z,99.90
2018-09-15T07:10:20.331Z,99.90
2018-09-15T07:12:48.983Z,99.90
2018-09-15T07:15:17.663Z,94.80
2018-09-15T07:17:46.055Z,86.10
2018-09-15T07:20:14.520Z,72.00
2018-09-15T07:22:43.503Z,62.50
2018-09-15T07:25:11.961Z,56.30
2018-09-15T07:27:40.456Z,53.30
2018-09-15T07:30:08.821Z,53.10
2018-09-15T07:32:36.949Z,54.20
2018-09-15T07:35:05.327Z,55.70
2018-09-15T07:37:33.763Z,55.10
2018-09-15T07:40:02.021Z,54.50
2018-09-15T07:42:30.321Z,55.50
2018-09-15T07:44:58.660Z,56.00
2018-09-15T07:47:27.004Z,56.70
2018-09-15T07:49:55.539Z,56.40
2018-09-15T07:52:24.272Z,55.70
2018-09-15T07:54:52.865Z,55.30
2018-09-15T07:57:21.402Z,55.20
2018-09-15T07:59:50.868Z,54.20
2018-09-15T08:02:20.138Z,54.10
2018-09-15T08:04:48.909Z,54.70
2018-09-15T08:07:17.197Z,55.80
2018-09-15T08:09:46.310Z,56.70
2018-09-15T08:12:15.177Z,58.50
2018-09-15T08:14:43.588Z,58.90
2018-09-15T08:17:12.121Z,56.20
2018-09-15T08:19:40.656Z,52.90
2018-09-15T08:22:09.013Z,48.60
2018-09-15T08:24:37.322Z,46.30
2018-09-15T08:27:06.037Z,46.20
2018-09-15T08:29:34.431Z,46.90
2018-09-15T08:32:03.003Z,47.80
2018-09-15T08:34:31.232Z,47.70
2018-09-15T08:36:59.666Z,47.90
2018-09-15T08:39:27.814Z,47.50
2018-09-15T08:41:56.723Z,46.40
2018-09-15T08:44:25.450Z,45.50
2018-09-15T08:46:53.837Z,42.90
2018-09-15T08:49:22.476Z,41.30
2018-09-15T08:51:50.844Z,39.70
2018-09-15T08:54:19.357Z,39.40
2018-09-15T08:56:48.967Z,40.40
2018-09-15T08:59:17.275Z,41.10
2018-09-15T09:01:45.676Z,42.20
2018-09-15T09:04:14.068Z,43.20
2018-09-15T09:06:42.459Z,43.80
2018-09-15T09:09:11.875Z,44.80
2018-09-15T09:11:40.197Z,45.10
2018-09-15T09:14:08.597Z,46.10
2018-09-15T09:16:37.099Z,46.60
2018-09-15T09:19:05.579Z,47.40
2018-09-15T09:21:33.901Z,47.70
2018-09-15T09:24:02.283Z,48.30
2018-09-15T09:26:30.792Z,48.70
2018-09-15T09:28:59.006Z,48.60
2018-09-15T09:31:27.394Z,48.60
2018-09-15T09:33:55.744Z,49.20
2018-09-15T09:36:24.402Z,50.30
2018-09-15T09:38:52.994Z,51.00
2018-09-15T09:41:21.308Z,51.20
2018-09-15T09:43:49.576Z,50.80
2018-09-15T09:46:17.852Z,52.10
2018-09-15T09:48:46.082Z,52.40
2018-09-15T09:51:14.346Z,52.30
2018-09-15T09:53:42.681Z,52.40
2018-09-15T09:56:10.991Z,52.50
2018-09-15T09:58:39.295Z,52.80
2018-09-15T10:01:13.168Z,52.40
2018-09-15T10:03:41.601Z,52.60
2018-09-15T10:06:09.983Z,53.70
2018-09-15T10:08:38.415Z,52.90
2018-09-15T10:11:07.292Z,52.70
2018-09-15T10:13:35.569Z,52.00
2018-09-15T10:16:04.032Z,52.10
2018-09-15T10:18:32.291Z,50.50
2018-09-15T10:21:00.571Z,49.40
2018-09-15T10:23:28.923Z,49.10
2018-09-15T10:25:57.208Z,49.20
2018-09-15T10:28:25.579Z,48.80
2018-09-15T10:30:54.070Z,48.70
2018-09-15T10:33:22.480Z,48.70
2018-09-15T10:35:50.878Z,48.50
2018-09-15T10:38:19.400Z,48.40
2018-09-15T10:40:47.770Z,49.10
2018-09-15T10:43:16.272Z,48.90
2018-09-15T10:45:45.364Z,48.50
2018-09-15T10:48:13.797Z,48.30
2018-09-15T10:50:41.963Z,48.10
2018-09-15T10:53:10.112Z,48.10
2018-09-15T10:55:39.016Z,48.30
2018-09-15T10:58:07.431Z,48.60
2018-09-15T11:00:35.865Z,48.40
2018-09-15T11:03:05.129Z,48.10
2018-09-15T11:05:33.543Z,48.60
2018-09-15T11:08:01.898Z,48.10
2018-09-15T11:10:30.310Z,48.10
2018-09-15T11:12:59.953Z,47.70
2018-09-15T11:15:28.244Z,47.60
2018-09-15T11:17:56.558Z,48.10
2018-09-15T11:20:24.952Z,48.10
2018-09-15T11:22:53.696Z,48.10
2018-09-15T11:25:21.814Z,48.10
2018-09-15T11:27:50.374Z,48.00
2018-09-15T11:30:22.220Z,48.00
2018-09-15T11:32:50.751Z,48.00
2018-09-15T11:35:19.544Z,48.20
2018-09-15T11:37:47.922Z,48.40
2018-09-15T11:40:16.343Z,48.70
2018-09-15T11:42:45.556Z,48.30
2018-09-15T11:45:13.981Z,48.90
2018-09-15T11:47:42.281Z,49.10
2018-09-15T11:50:10.644Z,48.90
2018-09-15T11:52:39.162Z,49.20
2018-09-15T11:55:07.417Z,49.40
2018-09-15T11:57:35.714Z,48.60
2018-09-15T12:00:04.586Z,48.50
2018-09-15T12:02:34.024Z,48.60
2018-09-15T12:05:02.490Z,48.20
2018-09-15T12:07:36.626Z,48.30
2018-09-15T12:10:05.835Z,48.60
2018-09-15T12:12:34.226Z,48.40
2018-09-15T12:15:02.616Z,48.10
2018-09-15T12:17:30.814Z,48.60
2018-09-15T12:19:58.928Z,48.40
2018-09-15T12:22:27.332Z,48.70
2018-09-15T12:24:59.810Z,48.60
2018-09-15T12:27:28.315Z,48.50
2018-09-15T12:29:56.805Z,48.60
2018-09-15T12:32:25.178Z,48.30
2018-09-15T12:34:53.800Z,48.30
2018-09-15T12:37:22.133Z,48.40
2018-09-15T12:39:50.404Z,49.00
2018-09-15T12:42:19.814Z,49.10
2018-09-15T12:44:48.185Z,48.40
2018-09-15T12:47:16.719Z,48.70
2018-09-15T12:49:45.056Z,48.50
2018-09-15T12:52:14.681Z,48.90
2018-09-15T12:54:43.067Z,48.80
2018-09-15T12:57:11.411Z,48.70
2018-09-15T12:59:39.858Z,48.60
2018-09-15T13:02:08.516Z,48.20
2018-09-15T13:04:36.735Z,48.40
2018-09-15T13:07:05.181Z,48.20
2018-09-15T13:09:33.718Z,48.50
2018-09-15T13:12:02.103Z,48.60
2018-09-15T13:14:30.556Z,48.10
2018-09-15T13:16:59.071Z,47.70
2018-09-15T13:19:33.096Z,47.80
2018-09-15T13:22:01.597Z,47.70
2018-09-15T13:24:29.910Z,48.00
2018-09-15T13:26:58.212Z,48.20
2018-09-15T13:29:27.763Z,48.30
2018-09-15T13:31:56.266Z,48.40
2018-09-15T13:34:24.651Z,48.10
2018-09-15T13:36:53.111Z,47.30
2018-09-15T13:39:21.713Z,46.80
2018-09-15T13:41:50.421Z,46.70
2018-09-15T13:44:18.627Z,46.40
2018-09-15T13:46:47.342Z,46.40
2018-09-15T13:49:16.515Z,46.50
2018-09-15T13:51:45.029Z,46.70
2018-09-15T13:54:13.556Z,46.70
2018-09-15T13:56:42.953Z,46.90
2018-09-15T13:59:11.280Z,46.60
2018-09-15T14:01:39.774Z,46.50
2018-09-15T14:04:08.050Z,45.80
2018-09-15T14:06:37.593Z,46.00
2018-09-15T14:09:07.981Z,45.90
2018-09-15T14:11:36.259Z,46.30
2018-09-15T14:14:06.176Z,46.20
2018-09-15T14:16:34.596Z,46.70
2018-09-15T14:19:03.278Z,46.90
2018-09-15T14:21:31.777Z,47.30
2018-09-15T14:24:00.159Z,47.10
2018-09-15T14:26:28.571Z,46.90
2018-09-15T14:28:56.966Z,46.20
2018-09-15T14:31:25.681Z,46.60
2018-09-15T14:33:53.982Z,46.30
2018-09-15T14:36:22.370Z,46.00
2018-09-15T14:38:50.725Z,46.20
2018-09-15T14:41:19.217Z,46.10
2018-09-15T14:43:47.564Z,46.10
2018-09-15T14:46:15.865Z,46.10
2018-09-15T14:48:44.160Z,45.70
2018-09-15T14:51:12.565Z,45.10
2018-09-15T14:53:40.852Z,45.20
2018-09-15T14:56:13.793Z,45.10
2018-09-15T14:58:42.140Z,45.60
2018-09-15T15:01:10.572Z,45.50
2018-09-15T15:03:39.149Z,45.40
2018-09-15T15:06:07.708Z,45.40
2018-09-15T15:08:36.499Z,45.50
2018-09-15T15:11:05.187Z,45.30
2018-09-15T15:13:33.684Z,45.80
2018-09-15T15:16:02.193Z,45.60
2018-09-15T15:18:30.527Z,45.40
2018-09-15T15:20:59.088Z,45.30
2018-09-15T15:23:27.964Z,44.90
2018-09-15T15:25:56.453Z,45.20
2018-09-15T15:28:24.989Z,45.40
2018-09-15T15:30:53.418Z,45.40
2018-09-15T15:33:22.001Z,44.80
2018-09-15T15:35:50.537Z,44.90
2018-09-15T15:38:19.027Z,44.80
2018-09-15T15:40:47.545Z,44.90
2018-09-15T15:43:15.972Z,45.00
2018-09-15T15:45:44.538Z,45.30
2018-09-15T15:48:12.718Z,45.20
2018-09-15T15:50:41.625Z,45.60
2018-09-15T15:53:10.534Z,45.70
2018-09-15T15:55:38.983Z,46.00
2018-09-15T15:58:09.604Z,46.60
2018-09-15T16:00:37.987Z,47.00
2018-09-15T16:03:06.503Z,47.20
2018-09-15T16:05:38.855Z,47.30
2018-09-15T16:08:07.257Z,47.00
2018-09-15T16:10:35.659Z,47.10
2018-09-15T16:13:03.895Z,48.10
2018-09-15T16:15:33.289Z,47.60
2018-09-15T16:18:01.552Z,47.60
2018-09-15T16:20:30.093Z,47.30
2018-09-15T16:22:58.479Z,47.70
2018-09-15T16:25:27.102Z,47.70
2018-09-15T16:27:55.374Z,47.80
2018-09-15T16:30:23.890Z,48.20
2018-09-15T16:32:52.490Z,49.20
2018-09-15T16:35:21.002Z,48.80
2018-09-15T16:37:49.402Z,49.00
2018-09-15T16:40:17.965Z,49.30
2018-09-15T16:42:46.384Z,50.10
2018-09-15T16:45:14.802Z,50.60
2018-09-15T16:47:42.955Z,52.30
2018-09-15T16:50:11.390Z,52.40
2018-09-15T16:52:40.004Z,53.00
2018-09-15T16:55:08.767Z,53.50
2018-09-15T16:57:36.955Z,54.20
2018-09-15T17:00:07.321Z,54.50
2018-09-15T17:02:35.754Z,54.80
2018-09-15T17:05:04.461Z,55.30
2018-09-15T17:07:32.943Z,55.80
2018-09-15T17:10:01.363Z,56.10
2018-09-15T17:12:29.861Z,56.70
2018-09-15T17:14:58.129Z,56.90
2018-09-15T17:17:28.445Z,57.40
2018-09-15T17:19:56.859Z,57.70
2018-09-15T17:22:25.529Z,58.00
2018-09-15T17:24:57.601Z,58.30
2018-09-15T17:27:25.891Z,58.90
2018-09-15T17:29:54.172Z,59.30
2018-09-15T17:32:22.766Z,59.80
2018-09-15T17:34:51.114Z,60.50
2018-09-15T17:37:19.485Z,61.20
2018-09-15T17:39:47.913Z,61.80
2018-09-15T17:42:16.392Z,62.50
2018-09-15T17:44:44.666Z,63.00
2018-09-15T17:47:13.065Z,63.50
2018-09-15T17:49:41.389Z,64.00
2018-09-15T17:52:09.882Z,64.80
2018-09-15T17:54:38.430Z,65.10
2018-09-15T17:57:06.870Z,65.80
2018-09-15T17:59:35.385Z,66.40
2018-09-15T18:02:03.882Z,67.10
2018-09-15T18:04:32.183Z,67.70
2018-09-15T18:07:00.685Z,67.80
2018-09-15T18:09:29.313Z,68.00
2018-09-15T18:11:57.685Z,68.50
2018-09-15T18:14:26.164Z,69.40
2018-09-15T18:16:54.405Z,70.10
2018-09-15T18:19:22.887Z,71.00
2018-09-15T18:21:51.450Z,71.50
2018-09-15T18:24:19.676Z,72.00
2018-09-15T18:26:48.100Z,72.70
2018-09-15T18:29:16.796Z,73.60
2018-09-15T18:31:45.275Z,74.40
2018-09-15T18:34:13.660Z,75.10
2018-09-15T18:36:42.303Z,75.70
2018-09-15T18:39:11.205Z,76.40
2018-09-15T18:41:39.813Z,76.30
2018-09-15T18:44:08.306Z,76.90
2018-09-15T18:46:36.717Z,77.40
2018-09-15T18:49:05.824Z,78.20
2018-09-15T18:51:34.313Z,78.70
2018-09-15T18:54:03.296Z,79.80
2018-09-15T18:56:31.547Z,80.50
2018-09-15T18:58:59.834Z,81.20
2018-09-15T19:01:28.239Z,81.70
2018-09-15T19:03:56.735Z,82.20
2018-09-15T19:06:26.441Z,82.60
2018-09-15T19:08:54.424Z,83.10
2018-09-15T19:11:22.946Z,83.50
2018-09-15T19:13:51.348Z,83.40
2018-09-15T19:16:26.079Z,84.40
2018-09-15T19:18:54.504Z,85.10
2018-09-15T19:21:22.719Z,85.30
2018-09-15T19:23:51.668Z,85.80
2018-09-15T19:26:20.214Z,87.20
2018-09-15T19:28:48.620Z,87.20
2018-09-15T19:31:17.025Z,88.10
2018-09-15T19:33:45.516Z,88.40
2018-09-15T19:36:14.076Z,89.30
2018-09-15T19:38:42.517Z,89.70
2018-09-15T19:41:11.018Z,90.00
2018-09-15T19:43:39.341Z,90.20
2018-09-15T19:46:15.083Z,90.40
2018-09-15T19:48:43.565Z,90.60
2018-09-15T19:51:11.986Z,90.80
2018-09-15T19:53:40.384Z,91.20
2018-09-15T19:56:09.089Z,91.40
2018-09-15T19:58:37.477Z,91.60
2018-09-15T20:01:05.875Z,91.70
2018-09-15T20:03:34.193Z,91.90
2018-09-15T20:06:02.817Z,92.20
2018-09-15T20:08:31.188Z,92.30
2018-09-15T20:10:59.595Z,92.40
2018-09-15T20:13:27.830Z,92.60
2018-09-15T20:15:54.786Z,92.80
2018-09-15T20:18:21.716Z,92.90
2018-09-15T20:20:48.594Z,93.10
2018-09-15T20:23:16.986Z,93.60
2018-09-15T20:25:46.206Z,93.30
2018-09-15T20:28:14.708Z,93.50
2018-09-15T20:30:42.984Z,93.70
2018-09-15T20:33:11.726Z,93.80
2018-09-15T20:35:40.011Z,94.00
2018-09-15T20:38:08.507Z,94.10
2018-09-15T20:40:41.881Z,94.30
2018-09-15T20:43:10.228Z,94.50
2018-09-15T20:45:38.635Z,94.60
2018-09-15T20:48:07.268Z,94.90
2018-09-15T20:50:39.565Z,94.90
2018-09-15T20:53:07.941Z,95.20
2018-09-15T20:55:36.101Z,95.30
2018-09-15T20:58:07.674Z,95.40
2018-09-15T21:00:36.139Z,95.50
2018-09-15T21:03:04.658Z,95.80
2018-09-15T21:05:33.048Z,95.80
2018-09-15T21:08:07.394Z,96.00
2018-09-15T21:10:35.805Z,96.20
2018-09-15T21:13:04.292Z,96.30
2018-09-15T21:15:49.483Z,96.40
2018-09-15T21:18:17.795Z,96.60
2018-09-15T21:20:46.175Z,97.20
2018-09-15T21:23:21.415Z,97.30
2018-09-15T21:25:50.033Z,97.30
2018-09-15T21:28:18.413Z,97.40
2018-09-15T21:33:41.009Z,97.70
2018-09-15T21:36:09.411Z,97.70
2018-09-15T21:38:37.800Z,97.80
2018-09-15T21:41:06.518Z,97.80
2018-09-15T21:43:45.035Z,97.90
2018-09-15T21:46:13.449Z,98.10
2018-09-15T21:48:41.760Z,98.30
2018-09-15T21:51:21.265Z,98.50
2018-09-15T21:53:49.756Z,98.60
2018-09-15T21:56:18.292Z,98.90
2018-09-15T21:58:46.692Z,99.00
2018-09-15T22:01:23.176Z,99.20
2018-09-15T22:03:56.968Z,99.30
2018-09-15T22:06:25.574Z,99.40
2018-09-15T22:08:54.084Z,99.50
2018-09-15T22:11:22.576Z,99.60
2018-09-15T22:13:50.856Z,99.70
2018-09-15T22:16:19.376Z,99.90
2018-09-15T22:18:49.596Z,99.90
2018-09-15T22:21:18.085Z,99.90
2018-09-15T22:23:46.223Z,99.90
2018-09-15T22:26:15.371Z,99.90
2018-09-15T22:28:43.707Z,99.90
2018-09-15T22:31:12.331Z,99.90
2018-09-15T22:33:40.731Z,99.90
2018-09-15T22:36:09.167Z,99.90
2018-09-15T22:38:45.383Z,99.90
2018-09-15T22:41:13.620Z,99.90
2018-09-15T22:43:42.000Z,99.90
2018-09-15T22:46:10.420Z,99.90
2018-09-15T22:48:39.100Z,99.90
2018-09-15T22:51:07.622Z,99.90
2018-09-15T22:53:36.102Z,99.90
2018-09-15T22:56:10.661Z,99.90
2018-09-15T22:58:39.054Z,99.90
2018-09-15T23:01:07.662Z,99.90
2018-09-15T23:03:35.933Z,99.90
2018-09-15T23:06:04.158Z,99.90
2018-09-15T23:08:32.434Z,99.90
2018-09-15T23:11:00.839Z,99.90
2018-09-15T23:13:29.247Z,99.90
2018-09-15T23:16:03.691Z,99.90
2018-09-15T23:18:32.068Z,99.90
2018-09-15T23:21:00.357Z,99.90
2018-09-15T23:23:28.665Z,99.90
2018-09-15T23:25:56.945Z,99.90
2018-09-15T23:28:25.253Z,99.90
2018-09-15T23:30:53.670Z,99.90
2018-09-15T23:33:21.835Z,99.90
2018-09-15T23:35:50.057Z,99.90
2018-09-15T23:38:18.548Z,99.90
2018-09-15T23:40:46.939Z,99.90
2018-09-15T23:43:15.572Z,99.90
2018-09-15T23:45:43.842Z,99.90
2018-09-15T23:48:12.250Z,99.90
2018-09-15T23:50:40.555Z,99.90
2018-09-15T23:53:14.792Z,99.90
2018-09-15T23:55:43.026Z,99.90
2018-09-15T23:58:11.251Z,99.90
